sensor_id;sensor_type;location;lat;lon;timestamp;temperature;humidity
52415;DHT22;38340;52.964;6.086;2024-03-29T00:00:46;8.20;99.90
52415;DHT22;38340;52.964;6.086;2024-03-29T00:03:11;8.10;99.90
52415;DHT22;38340;52.964;6.086;2024-03-29T00:05:37;8.10;99.90
52415;DHT22;38340;52.964;6.086;2024-03-29T00:08:03;8.10;99.90
52415;DHT22;38340;52.964;6.086;2024-03-29T00:10:29;8.00;99.90
52415;DHT22;38340;52.964;6.086;2024-03-29T00:12:55;8.10;99.90
52415;DHT22;38340;52.964;6.086;2024-03-29T00:15:21;8.10;99.90
52415;DHT22;38340;52.964;6.086;2024-03-29T00:17:46;8.10;99.90
52415;DHT22;38340;52.964;6.086;2024-03-29T00:20:12;8.10;99.90
52415;DHT22;38340;52.964;6.086;2024-03-29T00:22:38;8.10;99.90
52415;DHT22;38340;52.964;6.086;2024-03-29T00:25:04;8.10;99.90
52415;DHT22;38340;52.964;6.086;2024-03-29T00:27:30;8.10;99.90
52415;DHT22;38340;52.964;6.086;2024-03-29T00:29:56;8.00;99.90
52415;DHT22;38340;52.964;6.086;2024-03-29T00:32:22;8.00;99.90
52415;DHT22;38340;52.964;6.086;2024-03-29T00:34:50;8.00;99.90
52415;DHT22;38340;52.964;6.086;2024-03-29T00:37:16;8.00;99.90
52415;DHT22;38340;52.964;6.086;2024-03-29T00:39:42;8.00;99.90
52415;DHT22;38340;52.964;6.086;2024-03-29T00:42:08;8.10;99.90
52415;DHT22;38340;52.964;6.086;2024-03-29T00:44:35;8.00;99.90
52415;DHT22;38340;52.964;6.086;2024-03-29T00:47:06;8.10;99.90
52415;DHT22;38340;52.964;6.086;2024-03-29T00:49:32;8.10;99.90
52415;DHT22;38340;52.964;6.086;2024-03-29T00:51:59;8.10;99.90
52415;DHT22;38340;52.964;6.086;2024-03-29T00:54:24;8.10;99.90
52415;DHT22;38340;52.964;6.086;2024-03-29T00:56:50;8.00;99.90
52415;DHT22;38340;52.964;6.086;2024-03-29T00:59:16;8.10;99.90
52415;DHT22;38340;52.964;6.086;2024-03-29T01:01:42;8.10;99.90
52415;DHT22;38340;52.964;6.086;2024-03-29T01:04:08;8.00;99.90
52415;DHT22;38340;52.964;6.086;2024-03-29T01:06:33;8.00;99.90
52415;DHT22;38340;52.964;6.086;2024-03-29T01:09:00;7.90;99.90
52415;DHT22;38340;52.964;6.086;2024-03-29T01:11:26;7.90;99.90
52415;DHT22;38340;52.964;6.086;2024-03-29T01:13:52;7.80;99.90
52415;DHT22;38340;52.964;6.086;2024-03-29T01:16:18;7.80;99.90
52415;DHT22;38340;52.964;6.086;2024-03-29T01:18:44;7.80;99.90
52415;DHT22;38340;52.964;6.086;2024-03-29T01:21:10;7.70;99.90
52415;DHT22;38340;52.964;6.086;2024-03-29T01:23:35;7.60;99.90
52415;DHT22;38340;52.964;6.086;2024-03-29T01:26:04;7.60;99.90
52415;DHT22;38340;52.964;6.086;2024-03-29T01:28:29;7.50;99.90
52415;DHT22;38340;52.964;6.086;2024-03-29T01:30:55;7.50;99.90
52415;DHT22;38340;52.964;6.086;2024-03-29T01:33:24;7.50;99.90
52415;DHT22;38340;52.964;6.086;2024-03-29T01:35:49;7.50;99.90
52415;DHT22;38340;52.964;6.086;2024-03-29T01:38:15;7.50;99.90
52415;DHT22;38340;52.964;6.086;2024-03-29T01:40:41;7.50;99.90
52415;DHT22;38340;52.964;6.086;2024-03-29T01:43:07;7.50;99.90
52415;DHT22;38340;52.964;6.086;2024-03-29T01:45:39;7.50;99.90
52415;DHT22;38340;52.964;6.086;2024-03-29T01:48:09;7.40;99.90
52415;DHT22;38340;52.964;6.086;2024-03-29T01:50:35;7.50;99.90
52415;DHT22;38340;52.964;6.086;2024-03-29T01:53:02;7.50;99.90
52415;DHT22;38340;52.964;6.086;2024-03-29T01:55:29;7.50;99.90
52415;DHT22;38340;52.964;6.086;2024-03-29T01:57:56;7.50;99.90
52415;DHT22;38340;52.964;6.086;2024-03-29T02:00:23;7.50;99.90
52415;DHT22;38340;52.964;6.086;2024-03-29T02:02:49;7.50;99.90
52415;DHT22;38340;52.964;6.086;2024-03-29T02:05:14;7.50;99.90
52415;DHT22;38340;52.964;6.086;2024-03-29T02:07:41;7.40;99.90
52415;DHT22;38340;52.964;6.086;2024-03-29T02:10:10;7.40;99.90
52415;DHT22;38340;52.964;6.086;2024-03-29T02:12:38;7.40;99.90
52415;DHT22;38340;52.964;6.086;2024-03-29T02:15:04;7.40;99.90
52415;DHT22;38340;52.964;6.086;2024-03-29T02:17:31;7.40;99.90
52415;DHT22;38340;52.964;6.086;2024-03-29T02:19:57;7.40;99.90
52415;DHT22;38340;52.964;6.086;2024-03-29T02:22:24;7.30;99.90
52415;DHT22;38340;52.964;6.086;2024-03-29T02:24:51;7.30;99.90
52415;DHT22;38340;52.964;6.086;2024-03-29T02:27:17;7.30;99.90
52415;DHT22;38340;52.964;6.086;2024-03-29T02:29:43;7.30;99.90
52415;DHT22;38340;52.964;6.086;2024-03-29T02:32:08;7.30;99.90
52415;DHT22;38340;52.964;6.086;2024-03-29T02:34:34;7.30;99.90
52415;DHT22;38340;52.964;6.086;2024-03-29T02:37:01;7.30;99.90
52415;DHT22;38340;52.964;6.086;2024-03-29T02:39:27;7.30;99.90
52415;DHT22;38340;52.964;6.086;2024-03-29T02:41:52;7.30;99.90
52415;DHT22;38340;52.964;6.086;2024-03-29T02:44:18;7.20;99.90
52415;DHT22;38340;52.964;6.086;2024-03-29T02:46:44;7.20;99.90
52415;DHT22;38340;52.964;6.086;2024-03-29T02:49:09;7.20;99.90
52415;DHT22;38340;52.964;6.086;2024-03-29T02:51:35;7.20;99.90
52415;DHT22;38340;52.964;6.086;2024-03-29T02:54:01;7.20;99.90
52415;DHT22;38340;52.964;6.086;2024-03-29T02:56:27;7.20;99.90
52415;DHT22;38340;52.964;6.086;2024-03-29T02:58:54;7.20;99.90
52415;DHT22;38340;52.964;6.086;2024-03-29T03:01:20;7.20;99.90
52415;DHT22;38340;52.964;6.086;2024-03-29T03:03:45;7.20;99.90
52415;DHT22;38340;52.964;6.086;2024-03-29T03:06:11;7.20;99.90
52415;DHT22;38340;52.964;6.086;2024-03-29T03:08:37;7.20;99.90
52415;DHT22;38340;52.964;6.086;2024-03-29T03:11:21;7.20;99.90
52415;DHT22;38340;52.964;6.086;2024-03-29T03:13:46;7.10;99.90
52415;DHT22;38340;52.964;6.086;2024-03-29T03:16:12;7.20;99.90
52415;DHT22;38340;52.964;6.086;2024-03-29T03:18:38;7.20;99.90
52415;DHT22;38340;52.964;6.086;2024-03-29T03:21:03;7.20;99.90
52415;DHT22;38340;52.964;6.086;2024-03-29T03:23:29;7.10;99.90
52415;DHT22;38340;52.964;6.086;2024-03-29T03:25:59;7.20;99.90
52415;DHT22;38340;52.964;6.086;2024-03-29T03:28:26;7.20;99.90
52415;DHT22;38340;52.964;6.086;2024-03-29T03:30:53;7.30;99.90
52415;DHT22;38340;52.964;6.086;2024-03-29T03:33:19;7.30;99.90
52415;DHT22;38340;52.964;6.086;2024-03-29T03:35:45;7.30;99.90
52415;DHT22;38340;52.964;6.086;2024-03-29T03:38:11;7.30;99.90
52415;DHT22;38340;52.964;6.086;2024-03-29T03:40:38;7.30;99.90
52415;DHT22;38340;52.964;6.086;2024-03-29T03:43:04;7.30;99.90
52415;DHT22;38340;52.964;6.086;2024-03-29T03:45:39;7.40;99.90
52415;DHT22;38340;52.964;6.086;2024-03-29T03:48:06;7.30;99.90
52415;DHT22;38340;52.964;6.086;2024-03-29T03:50:33;7.40;99.90
52415;DHT22;38340;52.964;6.086;2024-03-29T03:52:59;7.30;99.90
52415;DHT22;38340;52.964;6.086;2024-03-29T03:55:24;7.30;99.90
52415;DHT22;38340;52.964;6.086;2024-03-29T03:57:50;7.30;99.90
52415;DHT22;38340;52.964;6.086;2024-03-29T04:00:18;7.30;99.90
52415;DHT22;38340;52.964;6.086;2024-03-29T04:02:50;7.30;99.90
52415;DHT22;38340;52.964;6.086;2024-03-29T04:05:17;7.30;99.90
52415;DHT22;38340;52.964;6.086;2024-03-29T04:07:43;7.30;99.90
52415;DHT22;38340;52.964;6.086;2024-03-29T04:10:08;7.30;99.90
52415;DHT22;38340;52.964;6.086;2024-03-29T04:12:34;7.30;99.90
52415;DHT22;38340;52.964;6.086;2024-03-29T04:15:00;7.30;99.90
52415;DHT22;38340;52.964;6.086;2024-03-29T04:17:25;7.30;99.90
52415;DHT22;38340;52.964;6.086;2024-03-29T04:19:51;7.40;99.90
52415;DHT22;38340;52.964;6.086;2024-03-29T04:22:17;7.40;99.90
52415;DHT22;38340;52.964;6.086;2024-03-29T04:24:43;7.40;99.90
52415;DHT22;38340;52.964;6.086;2024-03-29T04:27:08;7.40;99.90
52415;DHT22;38340;52.964;6.086;2024-03-29T04:29:34;7.40;99.90
52415;DHT22;38340;52.964;6.086;2024-03-29T04:32:00;7.30;99.90
52415;DHT22;38340;52.964;6.086;2024-03-29T04:34:25;7.40;99.90
52415;DHT22;38340;52.964;6.086;2024-03-29T04:36:51;7.40;99.90
52415;DHT22;38340;52.964;6.086;2024-03-29T04:39:17;7.40;99.90
52415;DHT22;38340;52.964;6.086;2024-03-29T04:41:43;7.50;99.90
52415;DHT22;38340;52.964;6.086;2024-03-29T04:44:11;7.50;99.90
52415;DHT22;38340;52.964;6.086;2024-03-29T04:46:37;7.50;99.90
52415;DHT22;38340;52.964;6.086;2024-03-29T04:49:02;7.50;99.90
52415;DHT22;38340;52.964;6.086;2024-03-29T04:51:28;7.60;99.90
52415;DHT22;38340;52.964;6.086;2024-03-29T04:53:54;7.60;99.90
52415;DHT22;38340;52.964;6.086;2024-03-29T04:56:19;7.60;99.90
52415;DHT22;38340;52.964;6.086;2024-03-29T04:58:45;7.60;99.90
52415;DHT22;38340;52.964;6.086;2024-03-29T05:01:13;7.60;99.90
52415;DHT22;38340;52.964;6.086;2024-03-29T05:03:39;7.60;99.90
52415;DHT22;38340;52.964;6.086;2024-03-29T05:06:05;7.70;99.90
52415;DHT22;38340;52.964;6.086;2024-03-29T05:08:30;7.70;99.90
52415;DHT22;38340;52.964;6.086;2024-03-29T05:10:57;7.70;99.90
52415;DHT22;38340;52.964;6.086;2024-03-29T05:13:22;7.70;99.90
52415;DHT22;38340;52.964;6.086;2024-03-29T05:15:48;7.70;99.90
52415;DHT22;38340;52.964;6.086;2024-03-29T05:18:14;7.70;99.90
52415;DHT22;38340;52.964;6.086;2024-03-29T05:20:40;7.70;99.90
52415;DHT22;38340;52.964;6.086;2024-03-29T05:23:07;7.70;99.90
52415;DHT22;38340;52.964;6.086;2024-03-29T05:25:33;7.70;99.90
52415;DHT22;38340;52.964;6.086;2024-03-29T05:27:59;7.70;99.90
52415;DHT22;38340;52.964;6.086;2024-03-29T05:30:24;7.70;99.90
52415;DHT22;38340;52.964;6.086;2024-03-29T05:32:50;7.70;99.90
52415;DHT22;38340;52.964;6.086;2024-03-29T05:35:16;7.70;99.90
52415;DHT22;38340;52.964;6.086;2024-03-29T05:37:41;7.70;99.90
52415;DHT22;38340;52.964;6.086;2024-03-29T05:40:08;7.70;99.90
52415;DHT22;38340;52.964;6.086;2024-03-29T05:42:34;7.70;99.90
52415;DHT22;38340;52.964;6.086;2024-03-29T05:45:20;7.70;99.90
52415;DHT22;38340;52.964;6.086;2024-03-29T05:47:47;7.70;99.90
52415;DHT22;38340;52.964;6.086;2024-03-29T05:50:13;7.70;99.90
52415;DHT22;38340;52.964;6.086;2024-03-29T05:52:38;7.70;99.90
52415;DHT22;38340;52.964;6.086;2024-03-29T05:55:04;7.70;99.90
52415;DHT22;38340;52.964;6.086;2024-03-29T05:57:32;7.70;99.90
52415;DHT22;38340;52.964;6.086;2024-03-29T06:00:00;7.80;99.90
52415;DHT22;38340;52.964;6.086;2024-03-29T06:02:25;7.70;99.90
52415;DHT22;38340;52.964;6.086;2024-03-29T06:04:51;7.80;99.90
52415;DHT22;38340;52.964;6.086;2024-03-29T06:07:16;7.80;99.90
52415;DHT22;38340;52.964;6.086;2024-03-29T06:09:42;7.80;99.90
52415;DHT22;38340;52.964;6.086;2024-03-29T06:12:08;7.90;99.90
52415;DHT22;38340;52.964;6.086;2024-03-29T06:14:37;7.90;99.90
52415;DHT22;38340;52.964;6.086;2024-03-29T06:17:21;7.90;99.90
52415;DHT22;38340;52.964;6.086;2024-03-29T06:19:54;8.00;99.90
52415;DHT22;38340;52.964;6.086;2024-03-29T06:22:26;8.00;99.90
52415;DHT22;38340;52.964;6.086;2024-03-29T06:24:58;8.00;99.90
52415;DHT22;38340;52.964;6.086;2024-03-29T06:27:35;8.00;99.90
52415;DHT22;38340;52.964;6.086;2024-03-29T06:30:02;8.00;99.90
52415;DHT22;38340;52.964;6.086;2024-03-29T06:32:29;8.10;99.90
52415;DHT22;38340;52.964;6.086;2024-03-29T06:34:55;8.10;99.90
52415;DHT22;38340;52.964;6.086;2024-03-29T06:37:21;8.20;99.90
52415;DHT22;38340;52.964;6.086;2024-03-29T06:39:48;8.30;99.90
52415;DHT22;38340;52.964;6.086;2024-03-29T06:42:14;8.30;99.90
52415;DHT22;38340;52.964;6.086;2024-03-29T06:44:39;8.30;99.90
52415;DHT22;38340;52.964;6.086;2024-03-29T06:47:08;8.40;99.90
52415;DHT22;38340;52.964;6.086;2024-03-29T06:49:33;8.40;99.90
52415;DHT22;38340;52.964;6.086;2024-03-29T06:51:59;8.40;99.90
52415;DHT22;38340;52.964;6.086;2024-03-29T06:54:27;8.50;99.90
52415;DHT22;38340;52.964;6.086;2024-03-29T06:56:53;8.50;99.90
52415;DHT22;38340;52.964;6.086;2024-03-29T06:59:20;8.60;99.90
52415;DHT22;38340;52.964;6.086;2024-03-29T07:01:47;8.60;99.90
52415;DHT22;38340;52.964;6.086;2024-03-29T07:04:13;8.70;99.90
52415;DHT22;38340;52.964;6.086;2024-03-29T07:06:39;8.70;99.90
52415;DHT22;38340;52.964;6.086;2024-03-29T07:09:08;8.70;99.90
52415;DHT22;38340;52.964;6.086;2024-03-29T07:11:35;8.80;99.90
52415;DHT22;38340;52.964;6.086;2024-03-29T07:14:01;8.80;99.90
52415;DHT22;38340;52.964;6.086;2024-03-29T07:16:27;8.90;99.90
52415;DHT22;38340;52.964;6.086;2024-03-29T07:18:52;8.90;99.90
52415;DHT22;38340;52.964;6.086;2024-03-29T07:21:18;9.00;99.90
52415;DHT22;38340;52.964;6.086;2024-03-29T07:23:44;9.00;99.90
52415;DHT22;38340;52.964;6.086;2024-03-29T07:26:10;9.00;99.90
52415;DHT22;38340;52.964;6.086;2024-03-29T07:28:37;9.10;99.90
52415;DHT22;38340;52.964;6.086;2024-03-29T07:31:06;9.10;99.90
52415;DHT22;38340;52.964;6.086;2024-03-29T07:33:35;9.30;99.90
52415;DHT22;38340;52.964;6.086;2024-03-29T07:36:01;9.30;99.90
52415;DHT22;38340;52.964;6.086;2024-03-29T07:38:29;9.30;99.90
52415;DHT22;38340;52.964;6.086;2024-03-29T07:40:55;9.20;99.90
52415;DHT22;38340;52.964;6.086;2024-03-29T07:43:22;9.20;99.90
52415;DHT22;38340;52.964;6.086;2024-03-29T07:45:48;9.10;99.90
52415;DHT22;38340;52.964;6.086;2024-03-29T07:48:16;9.10;99.90
52415;DHT22;38340;52.964;6.086;2024-03-29T07:50:44;9.20;99.90
52415;DHT22;38340;52.964;6.086;2024-03-29T07:53:10;9.20;99.90
52415;DHT22;38340;52.964;6.086;2024-03-29T07:55:37;9.30;99.90
52415;DHT22;38340;52.964;6.086;2024-03-29T07:58:04;9.30;99.90
52415;DHT22;38340;52.964;6.086;2024-03-29T08:00:34;9.30;99.90
52415;DHT22;38340;52.964;6.086;2024-03-29T08:03:00;9.30;99.90
52415;DHT22;38340;52.964;6.086;2024-03-29T08:05:27;9.40;99.90
52415;DHT22;38340;52.964;6.086;2024-03-29T08:07:52;9.40;99.90
52415;DHT22;38340;52.964;6.086;2024-03-29T08:10:18;9.40;99.90
52415;DHT22;38340;52.964;6.086;2024-03-29T08:12:44;9.60;99.90
52415;DHT22;38340;52.964;6.086;2024-03-29T08:15:09;9.70;99.90
52415;DHT22;38340;52.964;6.086;2024-03-29T08:17:36;9.90;99.90
52415;DHT22;38340;52.964;6.086;2024-03-29T08:20:02;10.00;99.90
52415;DHT22;38340;52.964;6.086;2024-03-29T08:22:28;10.00;99.90
52415;DHT22;38340;52.964;6.086;2024-03-29T08:24:55;10.00;99.90
52415;DHT22;38340;52.964;6.086;2024-03-29T08:27:20;10.10;99.90
52415;DHT22;38340;52.964;6.086;2024-03-29T08:29:46;10.10;99.90
52415;DHT22;38340;52.964;6.086;2024-03-29T08:32:14;10.10;99.90
52415;DHT22;38340;52.964;6.086;2024-03-29T08:34:40;10.10;99.90
52415;DHT22;38340;52.964;6.086;2024-03-29T08:37:06;10.20;99.90
52415;DHT22;38340;52.964;6.086;2024-03-29T08:39:32;10.20;99.90
52415;DHT22;38340;52.964;6.086;2024-03-29T08:42:01;10.10;99.90
52415;DHT22;38340;52.964;6.086;2024-03-29T08:44:34;10.20;99.90
52415;DHT22;38340;52.964;6.086;2024-03-29T08:47:00;10.30;99.90
52415;DHT22;38340;52.964;6.086;2024-03-29T08:49:29;10.50;99.90
52415;DHT22;38340;52.964;6.086;2024-03-29T08:51:55;10.70;99.90
52415;DHT22;38340;52.964;6.086;2024-03-29T08:54:21;10.90;99.90
52415;DHT22;38340;52.964;6.086;2024-03-29T08:56:47;10.90;99.90
52415;DHT22;38340;52.964;6.086;2024-03-29T08:59:13;11.00;99.90
52415;DHT22;38340;52.964;6.086;2024-03-29T09:01:44;11.10;99.90
52415;DHT22;38340;52.964;6.086;2024-03-29T09:04:10;11.20;99.90
52415;DHT22;38340;52.964;6.086;2024-03-29T09:06:37;11.30;99.90
52415;DHT22;38340;52.964;6.086;2024-03-29T09:09:04;11.20;99.90
52415;DHT22;38340;52.964;6.086;2024-03-29T09:11:30;10.90;99.90
52415;DHT22;38340;52.964;6.086;2024-03-29T09:13:56;10.90;99.90
52415;DHT22;38340;52.964;6.086;2024-03-29T09:16:24;10.70;99.90
52415;DHT22;38340;52.964;6.086;2024-03-29T09:18:51;10.80;99.90
52415;DHT22;38340;52.964;6.086;2024-03-29T09:21:17;10.80;99.90
52415;DHT22;38340;52.964;6.086;2024-03-29T09:23:42;10.90;99.90
52415;DHT22;38340;52.964;6.086;2024-03-29T09:26:08;10.80;99.90
52415;DHT22;38340;52.964;6.086;2024-03-29T09:28:34;10.80;99.90
52415;DHT22;38340;52.964;6.086;2024-03-29T09:31:02;10.80;99.90
52415;DHT22;38340;52.964;6.086;2024-03-29T09:33:28;10.60;99.90
52415;DHT22;38340;52.964;6.086;2024-03-29T09:35:54;10.50;99.90
52415;DHT22;38340;52.964;6.086;2024-03-29T09:38:20;10.50;99.90
52415;DHT22;38340;52.964;6.086;2024-03-29T09:40:47;10.70;99.90
52415;DHT22;38340;52.964;6.086;2024-03-29T09:43:16;10.80;99.90
52415;DHT22;38340;52.964;6.086;2024-03-29T09:45:43;10.70;99.90
52415;DHT22;38340;52.964;6.086;2024-03-29T09:48:09;10.90;99.90
52415;DHT22;38340;52.964;6.086;2024-03-29T09:50:35;11.00;99.90
52415;DHT22;38340;52.964;6.086;2024-03-29T09:53:02;11.10;99.90
52415;DHT22;38340;52.964;6.086;2024-03-29T09:55:30;11.30;99.90
52415;DHT22;38340;52.964;6.086;2024-03-29T09:57:57;11.50;99.90
52415;DHT22;38340;52.964;6.086;2024-03-29T10:00:23;11.50;99.90
52415;DHT22;38340;52.964;6.086;2024-03-29T10:02:55;11.60;99.90
52415;DHT22;38340;52.964;6.086;2024-03-29T10:05:25;11.50;99.90
52415;DHT22;38340;52.964;6.086;2024-03-29T10:07:53;11.20;99.90
52415;DHT22;38340;52.964;6.086;2024-03-29T10:10:19;11.10;99.90
52415;DHT22;38340;52.964;6.086;2024-03-29T10:12:45;11.30;99.90
52415;DHT22;38340;52.964;6.086;2024-03-29T10:15:11;11.40;99.90
52415;DHT22;38340;52.964;6.086;2024-03-29T10:17:49;11.50;99.90
52415;DHT22;38340;52.964;6.086;2024-03-29T10:20:18;11.60;99.90
52415;DHT22;38340;52.964;6.086;2024-03-29T10:22:46;11.80;99.90
52415;DHT22;38340;52.964;6.086;2024-03-29T10:25:15;11.90;99.90
52415;DHT22;38340;52.964;6.086;2024-03-29T10:27:41;12.00;99.90
52415;DHT22;38340;52.964;6.086;2024-03-29T10:30:08;12.00;99.90
52415;DHT22;38340;52.964;6.086;2024-03-29T10:32:38;12.00;99.90
52415;DHT22;38340;52.964;6.086;2024-03-29T10:35:06;12.10;99.90
52415;DHT22;38340;52.964;6.086;2024-03-29T10:37:32;12.10;99.90
52415;DHT22;38340;52.964;6.086;2024-03-29T10:40:08;12.20;99.90
52415;DHT22;38340;52.964;6.086;2024-03-29T10:42:36;12.10;99.90
52415;DHT22;38340;52.964;6.086;2024-03-29T10:45:05;12.30;99.90
52415;DHT22;38340;52.964;6.086;2024-03-29T10:47:32;12.40;99.90
52415;DHT22;38340;52.964;6.086;2024-03-29T10:49:58;12.40;99.90
52415;DHT22;38340;52.964;6.086;2024-03-29T10:52:27;12.40;99.90
52415;DHT22;38340;52.964;6.086;2024-03-29T10:54:53;12.40;99.90
52415;DHT22;38340;52.964;6.086;2024-03-29T10:57:24;12.40;99.90
52415;DHT22;38340;52.964;6.086;2024-03-29T11:00:16;12.50;99.90
52415;DHT22;38340;52.964;6.086;2024-03-29T11:05:17;12.50;99.90
52415;DHT22;38340;52.964;6.086;2024-03-29T11:07:43;12.50;99.90
52415;DHT22;38340;52.964;6.086;2024-03-29T11:10:29;12.50;99.90
52415;DHT22;38340;52.964;6.086;2024-03-29T11:15:45;12.90;99.90
52415;DHT22;38340;52.964;6.086;2024-03-29T11:18:14;13.00;99.90
52415;DHT22;38340;52.964;6.086;2024-03-29T11:20:47;13.10;99.90
52415;DHT22;38340;52.964;6.086;2024-03-29T11:23:19;13.10;99.90
52415;DHT22;38340;52.964;6.086;2024-03-29T11:25:52;13.20;99.90
52415;DHT22;38340;52.964;6.086;2024-03-29T11:31:03;12.90;99.90
52415;DHT22;38340;52.964;6.086;2024-03-29T11:36:12;13.00;99.90
52415;DHT22;38340;52.964;6.086;2024-03-29T11:38:39;13.10;99.90
52415;DHT22;38340;52.964;6.086;2024-03-29T11:41:10;13.30;99.90
52415;DHT22;38340;52.964;6.086;2024-03-29T11:43:36;13.20;99.90
52415;DHT22;38340;52.964;6.086;2024-03-29T11:46:08;13.30;99.90
52415;DHT22;38340;52.964;6.086;2024-03-29T11:48:35;13.50;99.90
52415;DHT22;38340;52.964;6.086;2024-03-29T11:51:03;13.60;99.90
52415;DHT22;38340;52.964;6.086;2024-03-29T11:53:30;13.40;99.90
52415;DHT22;38340;52.964;6.086;2024-03-29T11:56:00;13.50;99.90
52415;DHT22;38340;52.964;6.086;2024-03-29T11:58:28;13.40;99.90
52415;DHT22;38340;52.964;6.086;2024-03-29T12:00:55;13.30;99.90
52415;DHT22;38340;52.964;6.086;2024-03-29T12:03:21;13.10;99.90
52415;DHT22;38340;52.964;6.086;2024-03-29T12:05:49;12.90;99.90
52415;DHT22;38340;52.964;6.086;2024-03-29T12:08:16;12.90;99.90
52415;DHT22;38340;52.964;6.086;2024-03-29T12:10:42;12.90;99.90
52415;DHT22;38340;52.964;6.086;2024-03-29T12:13:08;12.90;99.90
52415;DHT22;38340;52.964;6.086;2024-03-29T12:15:34;12.80;99.90
52415;DHT22;38340;52.964;6.086;2024-03-29T12:18:01;13.00;99.90
52415;DHT22;38340;52.964;6.086;2024-03-29T12:20:35;13.10;99.90
52415;DHT22;38340;52.964;6.086;2024-03-29T12:23:04;13.30;99.90
52415;DHT22;38340;52.964;6.086;2024-03-29T12:25:31;13.40;99.90
52415;DHT22;38340;52.964;6.086;2024-03-29T12:27:58;13.40;99.90
52415;DHT22;38340;52.964;6.086;2024-03-29T12:30:24;13.40;99.90
52415;DHT22;38340;52.964;6.086;2024-03-29T12:33:09;13.50;99.90
52415;DHT22;38340;52.964;6.086;2024-03-29T12:35:37;13.40;99.90
52415;DHT22;38340;52.964;6.086;2024-03-29T12:38:04;13.40;99.90
52415;DHT22;38340;52.964;6.086;2024-03-29T12:40:31;13.50;99.90
52415;DHT22;38340;52.964;6.086;2024-03-29T12:43:03;13.60;99.90
52415;DHT22;38340;52.964;6.086;2024-03-29T12:45:29;13.80;99.90
52415;DHT22;38340;52.964;6.086;2024-03-29T12:47:54;13.90;99.90
52415;DHT22;38340;52.964;6.086;2024-03-29T12:50:27;13.90;99.90
52415;DHT22;38340;52.964;6.086;2024-03-29T12:52:58;13.90;99.90
52415;DHT22;38340;52.964;6.086;2024-03-29T12:55:25;13.80;99.90
52415;DHT22;38340;52.964;6.086;2024-03-29T12:57:53;13.90;99.90
52415;DHT22;38340;52.964;6.086;2024-03-29T13:00:20;13.70;99.90
52415;DHT22;38340;52.964;6.086;2024-03-29T13:02:45;13.80;99.90
52415;DHT22;38340;52.964;6.086;2024-03-29T13:05:11;13.80;99.90
52415;DHT22;38340;52.964;6.086;2024-03-29T13:07:37;13.60;99.90
52415;DHT22;38340;52.964;6.086;2024-03-29T13:10:03;13.60;99.90
52415;DHT22;38340;52.964;6.086;2024-03-29T13:12:36;13.50;99.90
52415;DHT22;38340;52.964;6.086;2024-03-29T13:15:14;13.60;99.90
52415;DHT22;38340;52.964;6.086;2024-03-29T13:17:40;13.80;99.90
52415;DHT22;38340;52.964;6.086;2024-03-29T13:20:06;13.70;99.90
52415;DHT22;38340;52.964;6.086;2024-03-29T13:22:32;13.80;99.90
52415;DHT22;38340;52.964;6.086;2024-03-29T13:24:57;13.70;99.90
52415;DHT22;38340;52.964;6.086;2024-03-29T13:27:23;13.70;99.90
52415;DHT22;38340;52.964;6.086;2024-03-29T13:29:49;13.70;99.90
52415;DHT22;38340;52.964;6.086;2024-03-29T13:32:14;13.60;99.90
52415;DHT22;38340;52.964;6.086;2024-03-29T13:34:40;13.60;99.90
52415;DHT22;38340;52.964;6.086;2024-03-29T13:37:06;13.70;99.90
52415;DHT22;38340;52.964;6.086;2024-03-29T13:39:31;13.70;99.90
52415;DHT22;38340;52.964;6.086;2024-03-29T13:41:57;13.60;99.90
52415;DHT22;38340;52.964;6.086;2024-03-29T13:44:24;13.70;99.90
52415;DHT22;38340;52.964;6.086;2024-03-29T13:46:49;13.70;99.90
52415;DHT22;38340;52.964;6.086;2024-03-29T13:49:17;13.80;99.90
52415;DHT22;38340;52.964;6.086;2024-03-29T13:51:46;13.70;99.90
52415;DHT22;38340;52.964;6.086;2024-03-29T13:54:12;13.80;99.90
52415;DHT22;38340;52.964;6.086;2024-03-29T13:56:38;13.90;99.90
52415;DHT22;38340;52.964;6.086;2024-03-29T13:59:04;14.00;99.90
52415;DHT22;38340;52.964;6.086;2024-03-29T14:01:29;14.10;99.90
52415;DHT22;38340;52.964;6.086;2024-03-29T14:03:55;14.20;99.90
52415;DHT22;38340;52.964;6.086;2024-03-29T14:06:21;14.10;99.90
52415;DHT22;38340;52.964;6.086;2024-03-29T14:08:47;14.10;99.90
52415;DHT22;38340;52.964;6.086;2024-03-29T14:11:13;14.10;99.90
52415;DHT22;38340;52.964;6.086;2024-03-29T14:13:40;14.30;99.90
52415;DHT22;38340;52.964;6.086;2024-03-29T14:16:06;14.20;99.90
52415;DHT22;38340;52.964;6.086;2024-03-29T14:18:31;14.10;99.90
52415;DHT22;38340;52.964;6.086;2024-03-29T14:20:57;14.20;99.90
52415;DHT22;38340;52.964;6.086;2024-03-29T14:23:23;14.30;99.90
52415;DHT22;38340;52.964;6.086;2024-03-29T14:25:51;14.10;99.90
52415;DHT22;38340;52.964;6.086;2024-03-29T14:28:17;14.00;99.90
52415;DHT22;38340;52.964;6.086;2024-03-29T14:30:42;14.00;99.90
52415;DHT22;38340;52.964;6.086;2024-03-29T14:33:08;14.00;99.90
52415;DHT22;38340;52.964;6.086;2024-03-29T14:35:34;14.00;99.90
52415;DHT22;38340;52.964;6.086;2024-03-29T14:38:00;13.90;99.90
52415;DHT22;38340;52.964;6.086;2024-03-29T14:40:26;13.80;99.90
52415;DHT22;38340;52.964;6.086;2024-03-29T14:42:52;13.70;99.90
52415;DHT22;38340;52.964;6.086;2024-03-29T14:45:23;13.80;99.90
52415;DHT22;38340;52.964;6.086;2024-03-29T14:47:49;13.80;99.90
52415;DHT22;38340;52.964;6.086;2024-03-29T14:50:15;13.80;99.90
52415;DHT22;38340;52.964;6.086;2024-03-29T14:52:41;13.80;99.90
52415;DHT22;38340;52.964;6.086;2024-03-29T14:55:07;13.80;99.90
52415;DHT22;38340;52.964;6.086;2024-03-29T14:57:33;13.80;99.90
52415;DHT22;38340;52.964;6.086;2024-03-29T14:59:58;13.80;99.90
52415;DHT22;38340;52.964;6.086;2024-03-29T15:02:24;13.80;99.90
52415;DHT22;38340;52.964;6.086;2024-03-29T15:04:50;13.80;99.90
52415;DHT22;38340;52.964;6.086;2024-03-29T15:07:15;13.90;99.90
52415;DHT22;38340;52.964;6.086;2024-03-29T15:09:41;14.00;99.90
52415;DHT22;38340;52.964;6.086;2024-03-29T15:12:07;14.00;99.90
52415;DHT22;38340;52.964;6.086;2024-03-29T15:14:34;13.90;99.90
52415;DHT22;38340;52.964;6.086;2024-03-29T15:17:01;13.90;99.90
52415;DHT22;38340;52.964;6.086;2024-03-29T15:19:27;13.90;99.90
52415;DHT22;38340;52.964;6.086;2024-03-29T15:21:54;14.00;99.90
52415;DHT22;38340;52.964;6.086;2024-03-29T15:24:21;14.10;99.90
52415;DHT22;38340;52.964;6.086;2024-03-29T15:26:48;14.00;99.90
52415;DHT22;38340;52.964;6.086;2024-03-29T15:29:15;14.00;99.90
52415;DHT22;38340;52.964;6.086;2024-03-29T15:31:42;13.90;99.90
52415;DHT22;38340;52.964;6.086;2024-03-29T15:34:09;13.80;99.90
52415;DHT22;38340;52.964;6.086;2024-03-29T15:36:36;13.80;99.90
52415;DHT22;38340;52.964;6.086;2024-03-29T15:39:03;13.80;99.90
52415;DHT22;38340;52.964;6.086;2024-03-29T15:41:36;13.80;99.90
52415;DHT22;38340;52.964;6.086;2024-03-29T15:44:05;14.00;99.90
52415;DHT22;38340;52.964;6.086;2024-03-29T15:46:31;13.90;99.90
52415;DHT22;38340;52.964;6.086;2024-03-29T15:48:57;14.00;99.90